Aroma Park, IL (60910)

6:23 AM CST on November 24, 2014 (GMT -0600)
Cap Estates | Change Station
CLOSE
Current Station
Personal Weather Station
Location: Bourbonnais, IL
Elevation: 620 ft
Nearby Weather Stations

Elev 620 ft 41.17 °N, 87.83 °W | Updated 2 seconds ago

Light Rain
Light Rain
49.3 °F
Feels Like 49 °F
N
2.5
Wind Variable Wind from WSW
Gusts 2.5 mph

Today
High -- | Low -- °F
--% Chance of Precip.
Yesterday
High -- | Low -- °F
Precip. -- in
6:49 AM 4:26 PM
Waxing Crescent, 5% visible
Pressure 29.10 in
Visibility 7.0 miles
Clouds Overcast 400 ft
Windchill 49 °F
Dew Point 41 °F
Humidity 73%
Rainfall 0.25 in
Snow Depth Not available.
UV 0 out of 12
Pollen .10 out of 12
Air Quality Not available.
Flu Activity Not available.
METAR KIKK 241155Z AUTO 22005KT 7SM -RA OVC004 09/09 A2910 RMK AO2 70080 T00940091 10097 20093

More Conditions Fewer Conditions

Pressure 29.10 in
Visibility 7.0 miles
Clouds Overcast 400 ft
Windchill 49 °F
Dew Point 41 °F
Humidity 73%
Rainfall 0.25 in
Snow Depth Not available.
UV 0 out of 12
Pollen .10 out of 12
Air Quality Not available.
Flu Activity Not available.
METAR KIKK 241155Z AUTO 22005KT 7SM -RA OVC004 09/09 A2910 RMK AO2 70080 T00940091 10097 20093

More Conditions Fewer Conditions

10-Day Weather Forecast

Almanac

Astronomy

Nov. 24, 2014 Rise Set
Actual Time
Civil Twilight
Nautical Twilight
Astronomical Twilight
Moon
Length of Visible Light
Length of Day
Tomorrow will be .
, % of the Moon is Illuminated

Today's Extremes

State Highs State Lows

Community

WunderPhotos

Upload Photos

1,773,319 photos uploaded!

WunderBlogs® & News

Nearby

Air Quality

  Air Quality AQ Index Pollutant
Not available.

Snow Depth

Station Depth Elevation

Earthquake Activity

City Distance Mag. Time & Date
Minimum magnitude displayed is 2.5.

Coastal Water Temperatures

Place Temperature

Nearby Weather Stations